Time;durP1;ratioP1;P1;durP2;ratioP2;P2;SDS_P1;SDS_P2;PMS_P1;PMS_P2;Temp;Humidity;BMP_temperature;BMP_pressure;BME280_temperature;BME280_humidity;BME280_pressure;Samples;Min_cycle;Max_cycle;Signal;HPM_P1;HPM_P2
2024/03/08 00:00:09;;;;;;;13.52;10.85;;;16.00;55.90;;;;;;5113319;28;20177;-62
2024/03/08 00:02:36;;;;;;;11.48;10.13;;;16.00;55.40;;;;;;5113728;28;20523;-62
2024/03/08 00:05:03;;;;;;;12.07;10.85;;;16.00;56.00;;;;;;5113793;28;20194;-62
2024/03/08 00:07:28;;;;;;;11.07;9.90;;;15.90;55.30;;;;;;5099439;28;20193;-62
2024/03/08 00:09:54;;;;;;;14.90;10.80;;;15.90;55.30;;;;;;5093249;28;20185;-62
2024/03/08 00:12:20;;;;;;;12.68;10.52;;;15.90;55.30;;;;;;5093120;28;20565;-62
2024/03/08 00:14:48;;;;;;;10.75;9.60;;;15.90;56.30;;;;;;5092464;28;20178;-62
2024/03/08 00:17:15;;;;;;;12.32;9.82;;;15.80;55.60;;;;;;5092695;28;20575;-62
2024/03/08 00:19:41;;;;;;;11.38;10.18;;;15.80;55.70;;;;;;5093127;28;20652;-63
2024/03/08 00:22:07;;;;;;;11.48;9.45;;;15.80;55.70;;;;;;5092474;28;20174;-63
2024/03/08 00:24:33;;;;;;;11.88;10.63;;;15.80;55.90;;;;;;5092967;28;20250;-62
2024/03/08 00:26:58;;;;;;;11.73;10.13;;;15.80;55.90;;;;;;5093158;28;20629;-62
2024/03/08 00:29:24;;;;;;;11.50;9.90;;;15.70;55.80;;;;;;5091880;28;20173;-62
2024/03/08 00:31:50;;;;;;;11.65;9.82;;;15.70;56.00;;;;;;5092823;28;20170;-61
2024/03/08 00:34:15;;;;;;;11.48;10.35;;;15.70;56.10;;;;;;5091861;28;20173;-62
2024/03/08 00:36:41;;;;;;;11.18;9.68;;;15.70;56.10;;;;;;5092789;28;20170;-62
2024/03/08 00:39:06;;;;;;;10.90;9.75;;;15.70;56.10;;;;;;5092631;28;20209;-62
2024/03/08 00:41:32;;;;;;;10.02;8.98;;;15.70;56.20;;;;;;5091920;28;20203;-62
2024/03/08 00:43:58;;;;;;;12.25;10.32;;;15.70;56.20;;;;;;5092731;28;20201;-62
2024/03/08 00:46:24;;;;;;;11.18;9.40;;;15.60;56.10;;;;;;5092378;28;20196;-62
2024/03/08 00:48:49;;;;;;;10.05;9.05;;;15.60;56.20;;;;;;5092002;28;20170;-62
2024/03/08 00:51:18;;;;;;;10.77;8.88;;;15.60;56.30;;;;;;5092257;28;20166;-61
2024/03/08 00:53:43;;;;;;;10.77;9.38;;;15.60;56.30;;;;;;5092556;28;20178;-63
2024/03/08 00:56:11;;;;;;;10.68;9.45;;;15.60;56.80;;;;;;5091463;28;20681;-63
2024/03/08 00:58:37;;;;;;;10.10;9.02;;;15.60;56.30;;;;;;5092298;28;20238;-62
2024/03/08 01:01:04;;;;;;;11.68;9.75;;;15.60;56.30;;;;;;5092434;28;20174;-62
2024/03/08 01:03:34;;;;;;;12.07;10.13;;;15.50;56.30;;;;;;5091546;28;20223;-62
2024/03/08 01:06:01;;;;;;;10.13;9.13;;;15.60;56.30;;;;;;5092401;28;20182;-63
2024/03/08 01:08:27;;;;;;;9.80;8.88;;;15.50;56.30;;;;;;5092497;28;20246;-63
2024/03/08 01:10:53;;;;;;;9.23;8.32;;;15.50;56.30;;;;;;5091965;28;20170;-62
2024/03/08 01:13:19;;;;;;;10.93;9.00;;;15.50;56.20;;;;;;5092180;28;20186;-62
2024/03/08 01:15:44;;;;;;;10.43;9.10;;;15.50;56.30;;;;;;5092411;28;20319;-62
2024/03/08 01:18:10;;;;;;;10.50;9.40;;;15.50;56.20;;;;;;5091210;28;20296;-62
2024/03/08 01:20:36;;;;;;;9.88;8.88;;;15.50;56.40;;;;;;5092156;28;20169;-63
2024/03/08 01:23:01;;;;;;;10.23;8.50;;;15.50;56.50;;;;;;5092172;28;20188;-63
2024/03/08 01:25:27;;;;;;;9.93;9.00;;;15.40;56.30;;;;;;5091203;28;20177;-62
2024/03/08 01:27:53;;;;;;;10.88;9.23;;;15.50;56.40;;;;;;5092442;28;20177;-62
2024/03/08 01:30:19;;;;;;;9.70;8.70;;;15.40;56.30;;;;;;5092051;28;20173;-62
2024/03/08 01:32:44;;;;;;;9.40;8.50;;;15.40;56.40;;;;;;5091522;28;20184;-62
2024/03/08 01:35:10;;;;;;;9.85;8.90;;;15.40;56.40;;;;;;5091821;28;20181;-62
2024/03/08 01:37:36;;;;;;;9.43;8.43;;;15.40;56.40;;;;;;5091466;28;20213;-63
2024/03/08 01:40:02;;;;;;;9.73;8.70;;;15.40;56.40;;;;;;5092415;28;20322;-62
2024/03/08 01:42:28;;;;;;;10.88;8.70;;;15.30;56.40;;;;;;5091830;28;20196;-63
2024/03/08 01:44:54;;;;;;;9.43;8.52;;;15.40;56.40;;;;;;5091283;28;20170;-62
2024/03/08 01:47:22;;;;;;;10.23;9.18;;;15.40;56.40;;;;;;5094482;28;20169;-62
2024/03/08 01:49:51;;;;;;;10.88;9.20;;;15.40;56.50;;;;;;5094622;28;20178;-62
2024/03/08 01:52:18;;;;;;;9.95;8.95;;;15.30;56.50;;;;;;5093713;28;20624;-62
2024/03/08 01:54:44;;;;;;;9.82;8.82;;;15.30;56.50;;;;;;5094195;28;20182;-62
2024/03/08 01:57:10;;;;;;;9.77;8.77;;;15.30;56.50;;;;;;5093944;28;20230;-63
2024/03/08 01:59:35;;;;;;;9.50;8.48;;;15.70;56.60;;;;;;5093878;28;20188;-62
2024/03/08 02:02:01;;;;;;;9.60;8.68;;;15.30;56.40;;;;;;5095850;28;20212;-62
2024/03/08 02:04:28;;;;;;;9.57;8.57;;;15.30;56.50;;;;;;5095346;28;20671;-62
2024/03/08 02:06:53;;;;;;;9.57;8.63;;;15.30;56.50;;;;;;5093734;28;20559;-62
2024/03/08 02:09:19;;;;;;;9.75;8.75;;;15.30;56.40;;;;;;5095483;28;20187;-62
2024/03/08 02:11:45;;;;;;;9.10;8.13;;;15.30;56.50;;;;;;5095507;28;20547;-62
2024/03/08 02:14:11;;;;;;;10.70;9.63;;;15.30;56.50;;;;;;5093303;28;20182;-63
2024/03/08 02:16:37;;;;;;;9.93;8.75;;;15.30;56.40;;;;;;5095490;28;20567;-62
2024/03/08 02:19:03;;;;;;;9.75;8.77;;;15.20;56.50;;;;;;5095261;28;20231;-63
2024/03/08 02:21:28;;;;;;;9.52;8.63;;;15.20;56.40;;;;;;5094637;28;20264;-63
2024/03/08 02:23:54;;;;;;;9.57;8.63;;;15.20;56.40;;;;;;5094370;28;20259;-63
2024/03/08 02:26:20;;;;;;;9.20;8.30;;;15.20;56.70;;;;;;5093945;28;20174;-63
2024/03/08 02:28:46;;;;;;;9.90;9.00;;;15.20;56.50;;;;;;5094652;28;20204;-62
2024/03/08 02:31:11;;;;;;;8.50;7.70;;;15.20;56.50;;;;;;5094950;28;20719;-62
2024/03/08 02:33:37;;;;;;;9.15;8.25;;;15.20;56.50;;;;;;5095044;28;20182;-62
2024/03/08 02:36:03;;;;;;;9.90;8.90;;;15.20;56.50;;;;;;5094310;28;20177;-63
2024/03/08 02:38:29;;;;;;;9.20;8.30;;;15.20;56.50;;;;;;5094654;28;20269;-63
2024/03/08 02:40:54;;;;;;;9.23;8.32;;;15.10;56.50;;;;;;5094262;28;20170;-62
2024/03/08 02:43:24;;;;;;;9.13;8.30;;;15.10;56.50;;;;;;5094753;28;20177;-64
2024/03/08 02:45:50;;;;;;;8.65;7.88;;;15.20;56.50;;;;;;5094989;28;20178;-62
2024/03/08 02:48:16;;;;;;;9.98;8.10;;;15.10;56.50;;;;;;5093756;28;20200;-62
2024/03/08 02:50:42;;;;;;;9.77;8.77;;;15.10;56.50;;;;;;5094805;28;20628;-62
2024/03/08 02:53:08;;;;;;;9.38;8.35;;;15.10;56.50;;;;;;5094785;28;20174;-63
2024/03/08 02:55:35;;;;;;;9.60;8.60;;;15.10;56.50;;;;;;5093943;28;20304;-63
2024/03/08 02:58:03;;;;;;;9.60;8.57;;;15.10;56.50;;;;;;5093195;28;20260;-63
2024/03/08 03:00:30;;;;;;;8.75;7.93;;;15.10;56.50;;;;;;5094389;28;20178;-63
2024/03/08 03:02:56;;;;;;;9.00;8.10;;;15.10;56.50;;;;;;5093844;28;20242;-62
2024/03/08 03:05:22;;;;;;;9.68;8.68;;;15.10;56.50;;;;;;5094437;28;20166;-62
2024/03/08 03:07:48;;;;;;;9.30;8.40;;;15.10;56.50;;;;;;5094655;28;20883;-62
2024/03/08 03:10:16;;;;;;;9.20;8.30;;;15.10;56.60;;;;;;5093607;28;20182;-62
2024/03/08 03:12:42;;;;;;;9.30;8.35;;;15.10;56.60;;;;;;5094390;28;20689;-62
2024/03/08 03:15:11;;;;;;;9.30;8.40;;;15.00;56.50;;;;;;5094247;28;20276;-62
2024/03/08 03:17:37;;;;;;;8.93;8.13;;;15.00;56.40;;;;;;5093596;28;20213;-63
2024/03/08 03:20:09;;;;;;;9.80;8.80;;;15.00;56.50;;;;;;5094465;28;20193;-63
2024/03/08 03:22:34;;;;;;;9.00;8.10;;;15.00;56.40;;;;;;5094414;28;20177;-63
2024/03/08 03:25:00;;;;;;;9.80;8.85;;;15.00;56.50;;;;;;5093588;28;20174;-62
2024/03/08 03:27:26;;;;;;;9.32;8.43;;;15.00;56.50;;;;;;5093839;28;20174;-62
2024/03/08 03:29:52;;;;;;;9.05;8.25;;;15.00;56.40;;;;;;5094004;28;20651;-62
2024/03/08 03:32:18;;;;;;;9.27;8.38;;;15.00;57.20;;;;;;5093294;28;20177;-62
2024/03/08 03:34:44;;;;;;;8.65;7.85;;;15.00;56.60;;;;;;5094190;28;20182;-63
2024/03/08 03:37:12;;;;;;;8.98;8.13;;;15.00;56.50;;;;;;5092930;28;20181;-63
2024/03/08 03:39:48;;;;;;;8.50;7.70;;;14.90;56.50;;;;;;5094020;28;20182;-63
2024/03/08 03:42:17;;;;;;;8.82;8.02;;;15.00;56.50;;;;;;5093576;28;20182;-63
2024/03/08 03:44:47;;;;;;;8.80;7.90;;;15.00;56.40;;;;;;5093354;28;20182;-62
2024/03/08 03:47:12;;;;;;;9.40;8.50;;;15.00;56.50;;;;;;5093606;28;20165;-62
2024/03/08 03:49:38;;;;;;;9.30;8.40;;;15.00;56.50;;;;;;5093633;28;20182;-62
2024/03/08 03:52:04;;;;;;;9.30;8.40;;;14.90;56.40;;;;;;5092992;28;20253;-62
2024/03/08 03:54:30;;;;;;;9.73;8.77;;;14.90;56.50;;;;;;5093407;28;20906;-63
2024/03/08 03:56:56;;;;;;;8.95;8.05;;;14.90;56.50;;;;;;5093469;28;20180;-63
2024/03/08 03:59:21;;;;;;;8.25;7.55;;;14.90;56.60;;;;;;5092224;28;20237;-63
2024/03/08 04:01:47;;;;;;;8.82;7.93;;;14.90;56.60;;;;;;5093712;28;20198;-63
2024/03/08 04:04:12;;;;;;;9.43;8.23;;;14.90;56.50;;;;;;5093200;28;20257;-63
2024/03/08 04:06:38;;;;;;;8.85;7.95;;;14.90;56.50;;;;;;5092833;28;20257;-63
2024/03/08 04:09:04;;;;;;;8.38;7.68;;;14.90;56.50;;;;;;5093027;28;20174;-63
2024/03/08 04:11:30;;;;;;;9.05;8.25;;;14.90;56.60;;;;;;5092924;28;20170;-62
2024/03/08 04:13:55;;;;;;;9.05;8.13;;;14.80;56.50;;;;;;5092593;28;20235;-63
2024/03/08 04:16:21;;;;;;;9.45;8.55;;;14.80;56.40;;;;;;5092863;28;20173;-63
2024/03/08 04:18:47;;;;;;;8.38;7.57;;;14.80;56.50;;;;;;5093214;28;20228;-62
2024/03/08 04:21:13;;;;;;;9.02;8.13;;;14.80;56.50;;;;;;5092237;28;20176;-63
2024/03/08 04:23:38;;;;;;;9.05;8.13;;;14.80;56.50;;;;;;5093179;28;20185;-63
2024/03/08 04:26:08;;;;;;;8.63;7.82;;;14.80;56.50;;;;;;5092966;28;20174;-63
2024/03/08 04:28:34;;;;;;;8.30;7.57;;;14.80;56.60;;;;;;5092520;28;20219;-62
2024/03/08 04:31:00;;;;;;;8.48;7.68;;;14.80;56.50;;;;;;5093109;28;20566;-62
2024/03/08 04:33:26;;;;;;;7.90;7.20;;;14.80;56.50;;;;;;5090801;28;20205;-62
2024/03/08 04:35:53;;;;;;;9.07;8.27;;;14.80;56.50;;;;;;5092430;28;20255;-62
2024/03/08 04:38:19;;;;;;;9.25;8.35;;;14.80;56.50;;;;;;5092400;28;20210;-64
2024/03/08 04:40:44;;;;;;;9.00;8.10;;;14.80;56.50;;;;;;5092027;28;20259;-64
2024/03/08 04:43:10;;;;;;;8.40;7.60;;;14.80;56.50;;;;;;5092649;28;20201;-63
2024/03/08 04:45:37;;;;;;;8.98;8.05;;;14.80;56.50;;;;;;5092676;28;20207;-63
2024/03/08 04:48:02;;;;;;;8.70;7.90;;;14.70;56.50;;;;;;5092081;28;20178;-63
2024/03/08 04:50:30;;;;;;;8.90;8.00;;;14.80;56.50;;;;;;5092375;28;20626;-63
2024/03/08 04:52:56;;;;;;;8.20;7.40;;;14.70;57.10;;;;;;5092562;28;20264;-63
2024/03/08 04:55:22;;;;;;;9.23;8.32;;;14.70;56.50;;;;;;5091396;28;20265;-63
2024/03/08 04:57:51;;;;;;;8.80;8.00;;;14.70;56.50;;;;;;5092433;28;20634;-64
2024/03/08 05:00:16;;;;;;;9.48;8.57;;;14.70;56.50;;;;;;5092167;28;20625;-64
2024/03/08 05:02:42;;;;;;;8.80;7.90;;;14.70;56.50;;;;;;5091693;28;20178;-63
2024/03/08 05:05:12;;;;;;;9.27;8.38;;;14.70;56.50;;;;;;5092061;28;20296;-63
2024/03/08 05:07:38;;;;;;;8.15;7.45;;;14.70;56.50;;;;;;5092330;28;20173;-63
2024/03/08 05:10:05;;;;;;;8.65;7.85;;;14.70;56.50;;;;;;5091965;28;20188;-63
2024/03/08 05:12:31;;;;;;;9.07;7.97;;;14.70;56.60;;;;;;5091910;28;20223;-63
2024/03/08 05:14:57;;;;;;;9.10;8.20;;;14.70;56.50;;;;;;5092215;28;20708;-63
2024/03/08 05:17:23;;;;;;;8.50;7.43;;;14.70;56.50;;;;;;5091097;28;20261;-63
2024/03/08 05:19:49;;;;;;;9.85;8.52;;;14.70;56.60;;;;;;5092233;28;20182;-64
2024/03/08 05:22:15;;;;;;;8.23;7.47;;;14.60;56.50;;;;;;5091052;28;20280;-63
2024/03/08 05:24:40;;;;;;;8.32;7.53;;;14.70;56.60;;;;;;5091435;28;20181;-63
2024/03/08 05:27:06;;;;;;;8.52;7.80;;;14.60;56.50;;;;;;5092069;28;20532;-63
2024/03/08 05:29:31;;;;;;;8.63;7.82;;;14.70;56.50;;;;;;5091312;28;20201;-63
2024/03/08 05:31:57;;;;;;;9.10;8.20;;;14.60;56.50;;;;;;5091996;28;20265;-63
2024/03/08 05:34:23;;;;;;;8.77;7.97;;;14.60;56.50;;;;;;5091744;28;20170;-63
2024/03/08 05:36:50;;;;;;;8.80;7.93;;;14.60;56.60;;;;;;5091354;28;20248;-63
2024/03/08 05:39:16;;;;;;;8.80;8.00;;;14.60;56.60;;;;;;5091823;28;20263;-63
2024/03/08 05:41:45;;;;;;;9.63;8.65;;;14.60;56.50;;;;;;5092138;28;20174;-63
2024/03/08 05:44:11;;;;;;;8.48;7.68;;;14.60;56.50;;;;;;5090874;28;20651;-63
2024/03/08 05:46:36;;;;;;;9.52;8.65;;;14.60;56.50;;;;;;5091924;28;20177;-62
2024/03/08 05:49:05;;;;;;;9.43;8.63;;;14.60;56.50;;;;;;5091960;28;20254;-61
2024/03/08 05:51:31;;;;;;;9.88;8.60;;;14.60;56.70;;;;;;5090873;28;20587;-63
2024/03/08 05:53:58;;;;;;;9.90;8.88;;;14.60;56.50;;;;;;5092131;28;20257;-62
2024/03/08 05:56:24;;;;;;;8.18;7.47;;;14.70;56.50;;;;;;5091679;28;20182;-63
2024/03/08 05:58:50;;;;;;;8.70;7.80;;;14.70;56.30;;;;;;5090845;28;20287;-62
2024/03/08 06:01:15;;;;;;;9.00;8.10;;;14.80;56.10;;;;;;5091556;28;20170;-63
2024/03/08 06:03:44;;;;;;;7.95;7.25;;;14.90;55.90;;;;;;5091834;28;20178;-62
2024/03/08 06:06:12;;;;;;;7.60;6.90;;;15.00;55.90;;;;;;5090713;28;20184;-62
2024/03/08 06:08:37;;;;;;;7.72;6.95;;;15.10;55.90;;;;;;5091925;28;20174;-63
2024/03/08 06:11:04;;;;;;;7.63;6.93;;;15.20;55.80;;;;;;5091688;28;20173;-62
2024/03/08 06:13:31;;;;;;;8.18;7.03;;;15.30;55.70;;;;;;5090650;28;20268;-63
2024/03/08 06:16:04;;;;;;;7.70;7.00;;;15.40;55.60;;;;;;5091654;28;20189;-63
2024/03/08 06:18:36;;;;;;;7.57;6.72;;;15.60;55.30;;;;;;5091273;28;20215;-63
2024/03/08 06:21:11;;;;;;;7.10;6.43;;;15.70;55.10;;;;;;5090971;28;20598;-63
2024/03/08 06:23:38;;;;;;;7.38;6.63;;;15.80;55.00;;;;;;5091781;28;20177;-63
2024/03/08 06:26:04;;;;;;;7.10;6.50;;;15.80;54.90;;;;;;5091048;28;20174;-62
2024/03/08 06:28:29;;;;;;;7.10;6.40;;;15.90;54.80;;;;;;5091277;28;20553;-62
2024/03/08 06:30:55;;;;;;;7.00;6.40;;;15.90;54.70;;;;;;5091497;28;20256;-62
2024/03/08 06:33:20;;;;;;;7.40;6.70;;;16.00;54.70;;;;;;5092919;28;20536;-62
2024/03/08 06:35:46;;;;;;;6.75;6.15;;;16.00;54.60;;;;;;5095379;28;20640;-63
2024/03/08 06:38:12;;;;;;;7.50;6.70;;;16.10;54.60;;;;;;5094891;28;20575;-63
2024/03/08 06:40:37;;;;;;;6.80;6.20;;;16.10;54.60;;;;;;5094366;28;20652;-63
2024/03/08 06:43:05;;;;;;;7.05;6.45;;;16.10;54.60;;;;;;5094953;28;20260;-62
2024/03/08 06:45:31;;;;;;;7.20;6.50;;;16.10;54.50;;;;;;5094675;28;20182;-62
2024/03/08 06:47:57;;;;;;;6.90;6.25;;;16.20;54.50;;;;;;5094463;28;20173;-62
2024/03/08 06:50:22;;;;;;;7.32;6.57;;;16.20;54.50;;;;;;5094713;28;20265;-62
2024/03/08 06:52:53;;;;;;;6.47;5.88;;;16.20;54.70;;;;;;5094971;28;20261;-63
2024/03/08 06:55:21;;;;;;;7.03;6.32;;;16.30;54.40;;;;;;5093992;28;20178;-62
2024/03/08 06:57:47;;;;;;;7.00;6.30;;;16.50;54.20;;;;;;5094478;28;20680;-63
2024/03/08 07:00:18;;;;;;;6.72;6.07;;;16.70;53.90;;;;;;5094304;28;20226;-63
2024/03/08 07:02:45;;;;;;;7.22;5.82;;;16.80;53.80;;;;;;5094262;28;20261;-63
2024/03/08 07:05:11;;;;;;;6.80;6.20;;;17.10;53.40;;;;;;5094417;28;20319;-62
2024/03/08 07:07:37;;;;;;;6.47;5.90;;;17.20;53.10;;;;;;5094668;28;20704;-63
2024/03/08 07:10:03;;;;;;;6.55;5.95;;;17.30;52.90;;;;;;5093823;28;20177;-63
2024/03/08 07:12:28;;;;;;;6.22;5.63;;;17.40;52.90;;;;;;5094177;28;20210;-63
2024/03/08 07:14:54;;;;;;;6.32;5.72;;;17.40;52.70;;;;;;5094357;28;20173;-62
2024/03/08 07:17:20;;;;;;;6.47;5.88;;;17.50;52.80;;;;;;5093420;28;20170;-62
2024/03/08 07:19:45;;;;;;;6.07;5.47;;;17.50;52.70;;;;;;5094474;28;20206;-62
2024/03/08 07:22:11;;;;;;;6.60;5.97;;;17.50;52.60;;;;;;5093241;28;20689;-63
2024/03/08 07:27:04;;;;;;;5.80;5.20;;;17.50;52.70;;;;;;5094340;28;20162;-63
2024/03/08 07:29:30;;;;;;;6.22;5.72;;;17.50;52.70;;;;;;5093024;28;20170;-63
2024/03/08 07:32:18;;;;;;;6.25;5.63;;;17.60;52.80;;;;;;5094096;28;20177;-62
2024/03/08 07:34:43;;;;;;;6.15;5.55;;;17.50;52.60;;;;;;5094086;28;20178;-62
2024/03/08 07:37:12;;;;;;;6.15;5.65;;;17.50;52.70;;;;;;5093064;28;20623;-62
2024/03/08 07:39:38;;;;;;;7.00;6.43;;;17.40;52.70;;;;;;5093921;28;20217;-62
2024/03/08 07:42:04;;;;;;;7.13;6.43;;;17.30;52.70;;;;;;5093915;28;20181;-63
2024/03/08 07:44:31;;;;;;;6.68;6.07;;;17.30;53.00;;;;;;5092405;28;20182;-62
2024/03/08 07:46:57;;;;;;;6.47;5.88;;;17.20;53.20;;;;;;5094131;28;20170;-62
2024/03/08 07:49:22;;;;;;;6.63;5.93;;;17.10;53.30;;;;;;5093691;28;20176;-62
2024/03/08 07:51:49;;;;;;;6.32;5.72;;;17.10;53.40;;;;;;5093241;28;20174;-62
2024/03/08 07:54:14;;;;;;;6.80;6.20;;;17.10;53.40;;;;;;5093558;28;20238;-64
2024/03/08 07:56:40;;;;;;;6.10;5.60;;;17.10;53.40;;;;;;5093629;28;20174;-63
2024/03/08 07:59:06;;;;;;;6.10;5.60;;;17.10;53.40;;;;;;5092704;28;20240;-63
2024/03/08 08:01:33;;;;;;;6.55;5.97;;;17.20;53.40;;;;;;5093147;28;20170;-63
2024/03/08 08:03:59;;;;;;;6.95;6.35;;;17.10;53.40;;;;;;5093367;28;20182;-62
2024/03/08 08:06:25;;;;;;;6.53;6.00;;;17.20;53.50;;;;;;5092491;28;20177;-63
2024/03/08 08:08:50;;;;;;;7.35;6.10;;;17.20;53.50;;;;;;5093268;28;20256;-62
2024/03/08 08:11:16;;;;;;;6.38;5.57;;;17.30;53.60;;;;;;5092886;28;20265;-62
2024/03/08 08:13:43;;;;;;;6.22;5.63;;;17.30;53.60;;;;;;5092923;28;20268;-63
2024/03/08 08:16:08;;;;;;;6.63;6.03;;;17.30;53.70;;;;;;5093148;28;20207;-63
2024/03/08 08:18:35;;;;;;;6.65;6.03;;;17.30;53.70;;;;;;5092520;28;20668;-63
2024/03/08 08:21:00;;;;;;;6.32;5.72;;;17.40;53.80;;;;;;5093161;28;20220;-62
2024/03/08 08:23:26;;;;;;;6.53;5.82;;;17.50;53.80;;;;;;5092747;28;20543;-61
2024/03/08 08:25:51;;;;;;;6.28;5.78;;;17.40;53.80;;;;;;5092574;28;20177;-61
2024/03/08 08:28:18;;;;;;;5.78;5.28;;;17.50;54.00;;;;;;5092848;28;20174;-61
2024/03/08 08:30:44;;;;;;;6.75;6.05;;;17.60;54.10;;;;;;5093047;28;20178;-60
2024/03/08 08:33:10;;;;;;;6.30;5.50;;;17.60;54.10;;;;;;5091993;28;20173;-60
2024/03/08 08:35:38;;;;;;;7.30;6.28;;;17.60;54.10;;;;;;5092940;28;20176;-61
2024/03/08 08:38:04;;;;;;;6.55;5.68;;;17.60;54.20;;;;;;5092719;28;20211;-61
2024/03/08 08:40:33;;;;;;;6.10;5.60;;;17.50;54.30;;;;;;5091628;28;20178;-61
2024/03/08 08:42:59;;;;;;;6.63;5.57;;;17.50;54.40;;;;;;5092869;28;20238;-60
2024/03/08 08:45:25;;;;;;;6.22;5.63;;;17.40;54.60;;;;;;5092530;28;20193;-60
2024/03/08 08:47:50;;;;;;;7.72;6.30;;;17.30;54.70;;;;;;5092073;28;20600;-60
2024/03/08 08:50:22;;;;;;;7.13;6.30;;;17.20;54.70;;;;;;5092266;28;20165;-62
2024/03/08 08:52:48;;;;;;;7.50;6.72;;;17.20;54.70;;;;;;5092506;28;20188;-62
2024/03/08 08:55:14;;;;;;;8.77;6.47;;;17.20;54.90;;;;;;5091531;28;20173;-60
2024/03/08 08:57:40;;;;;;;7.63;6.93;;;17.20;54.90;;;;;;5092142;28;20221;-60
2024/03/08 09:00:07;;;;;;;10.63;8.95;;;17.20;55.00;;;;;;5092343;28;20188;-60
2024/03/08 09:02:37;;;;;;;11.13;9.88;;;17.10;54.30;;;;;;5091551;28;20170;-60
2024/03/08 09:05:03;;;;;;;12.20;11.10;;;17.00;53.40;;;;;;5092488;28;20636;-60
2024/03/08 09:07:33;;;;;;;13.30;12.00;;;17.00;52.70;;;;;;5091960;28;20287;-60
2024/03/08 09:09:59;;;;;;;14.73;13.23;;;16.90;51.80;;;;;;5092375;28;20260;-60
2024/03/08 09:12:25;;;;;;;15.05;12.20;;;16.90;51.40;;;;;;5092126;28;20230;-63
2024/03/08 09:14:51;;;;;;;13.52;12.13;;;16.90;51.30;;;;;;5091741;28;20177;-61
2024/03/08 09:17:20;;;;;;;13.35;11.95;;;17.00;51.50;;;;;;5091942;28;20207;-62
2024/03/08 09:19:49;;;;;;;12.02;10.82;;;17.00;51.70;;;;;;5092232;28;20182;-61
2024/03/08 09:22:15;;;;;;;11.32;10.23;;;17.00;52.00;;;;;;5091384;28;20166;-61
2024/03/08 09:24:41;;;;;;;11.70;10.45;;;17.00;52.10;;;;;;5092381;28;20658;-61
2024/03/08 09:27:09;;;;;;;10.93;9.93;;;17.00;52.30;;;;;;5092279;28;20169;-61
2024/03/08 09:29:35;;;;;;;11.95;10.23;;;17.10;52.50;;;;;;5091445;28;20197;-61
2024/03/08 09:32:04;;;;;;;11.20;9.65;;;17.10;52.60;;;;;;5092198;28;20220;-60
2024/03/08 09:34:30;;;;;;;13.98;11.30;;;17.10;52.70;;;;;;5091527;28;20235;-61
2024/03/08 09:36:55;;;;;;;10.73;9.63;;;17.00;52.40;;;;;;5091476;28;20174;-61
2024/03/08 09:39:21;;;;;;;10.68;9.27;;;17.00;52.40;;;;;;5091793;28;20213;-62
2024/03/08 09:41:49;;;;;;;11.43;9.93;;;17.00;52.60;;;;;;5091841;28;20166;-63
2024/03/08 09:44:15;;;;;;;10.93;9.32;;;17.00;52.70;;;;;;5091005;28;20173;-65
2024/03/08 09:46:41;;;;;;;12.98;9.55;;;17.00;52.80;;;;;;5095131;28;20895;-62
2024/03/08 09:49:07;;;;;;;9.57;8.57;;;17.10;52.90;;;;;;5111507;28;20605;-62
2024/03/08 09:51:35;;;;;;;10.10;8.27;;;17.10;53.00;;;;;;5111227;28;20166;-62
2024/03/08 09:54:04;;;;;;;9.73;8.60;;;17.10;53.00;;;;;;5109331;28;20647;-62
2024/03/08 09:56:31;;;;;;;13.98;8.63;;;17.10;53.10;;;;;;5111821;28;20523;-63
2024/03/08 10:01:31;;;;;;;8.75;7.82;;;17.20;53.40;;;;;;5111839;28;20213;-62
2024/03/08 10:03:57;;;;;;;9.60;8.27;;;17.20;53.40;;;;;;5111349;28;20178;-62
2024/03/08 10:06:23;;;;;;;10.10;7.70;;;17.20;53.60;;;;;;5111869;28;20260;-63
2024/03/08 10:08:51;;;;;;;8.50;7.50;;;17.20;53.60;;;;;;5115541;28;20191;-62
2024/03/08 10:11:17;;;;;;;7.63;6.82;;;17.20;53.70;;;;;;5115022;28;20173;-62
2024/03/08 10:13:44;;;;;;;8.60;7.65;;;17.20;53.80;;;;;;5115338;28;20628;-62
2024/03/08 10:16:09;;;;;;;8.40;7.60;;;17.30;53.80;;;;;;5113773;28;20181;-63
2024/03/08 10:18:35;;;;;;;8.57;7.63;;;17.30;53.90;;;;;;5114482;28;20197;-63
2024/03/08 10:21:04;;;;;;;8.02;7.32;;;17.30;53.90;;;;;;5116084;27;20184;-62
2024/03/08 10:23:31;;;;;;;9.30;7.45;;;17.30;54.00;;;;;;5122649;27;20173;-63
2024/03/08 10:25:58;;;;;;;9.27;6.97;;;17.30;54.00;;;;;;5125305;27;20225;-62
2024/03/08 10:28:27;;;;;;;8.65;7.20;;;17.30;54.00;;;;;;5133955;27;20247;-62
2024/03/08 10:30:52;;;;;;;10.88;7.75;;;17.30;54.10;;;;;;5131191;27;20172;-62
2024/03/08 10:33:18;;;;;;;7.90;7.10;;;17.30;54.00;;;;;;5135067;27;20183;-62
2024/03/08 10:35:43;;;;;;;8.52;7.05;;;17.30;54.10;;;;;;5136247;27;20168;-63
2024/03/08 10:38:09;;;;;;;8.38;7.57;;;17.30;54.10;;;;;;5129413;27;20197;-63
2024/03/08 10:40:36;;;;;;;7.72;6.60;;;17.40;54.20;;;;;;5096552;28;20611;-63
2024/03/08 10:43:02;;;;;;;7.07;6.38;;;17.40;54.20;;;;;;5114091;28;20181;-63
2024/03/08 10:45:34;;;;;;;8.50;7.22;;;17.40;54.30;;;;;;5115005;28;20173;-62
2024/03/08 10:48:27;;;;;;;7.18;6.50;;;17.40;54.30;;;;;;5114432;28;20644;-62
2024/03/08 10:50:53;;;;;;;7.05;6.30;;;17.40;54.30;;;;;;5114105;28;20183;-62
2024/03/08 10:53:21;;;;;;;7.63;6.93;;;17.40;54.30;;;;;;5114121;28;20547;-62
2024/03/08 10:55:47;;;;;;;8.30;6.78;;;17.40;54.30;;;;;;5124692;27;20183;-63
2024/03/08 10:58:13;;;;;;;7.50;6.80;;;17.40;54.30;;;;;;5135204;27;20249;-63
2024/03/08 11:00:41;;;;;;;7.97;6.90;;;17.50;54.40;;;;;;5133872;27;20184;-63
2024/03/08 11:03:06;;;;;;;7.70;7.00;;;17.40;54.40;;;;;;5135611;27;20172;-63
2024/03/08 11:05:35;;;;;;;9.63;7.45;;;17.50;54.40;;;;;;5133923;27;20590;-63
2024/03/08 11:08:03;;;;;;;7.70;6.97;;;17.50;54.50;;;;;;5134556;27;20173;-63
2024/03/08 11:10:29;;;;;;;6.95;6.25;;;17.40;54.30;;;;;;5135249;27;20229;-62
2024/03/08 11:12:54;;;;;;;7.50;6.80;;;17.50;54.40;;;;;;5135323;27;20172;-62
2024/03/08 11:15:20;;;;;;;6.93;6.32;;;17.40;54.40;;;;;;5134472;27;20168;-63
2024/03/08 11:17:49;;;;;;;7.57;6.88;;;17.50;54.50;;;;;;5135040;27;20200;-62
2024/03/08 11:20:16;;;;;;;7.80;6.63;;;17.40;54.30;;;;;;5128035;27;20177;-63
2024/03/08 11:22:47;;;;;;;7.35;6.75;;;17.50;54.50;;;;;;5113760;28;20244;-63
2024/03/08 11:25:31;;;;;;;7.50;6.80;;;17.50;54.40;;;;;;5114226;28;20181;-63
2024/03/08 11:28:20;;;;;;;6.90;6.32;;;17.50;54.30;;;;;;5114563;28;20177;-62
2024/03/08 11:31:08;;;;;;;7.13;6.43;;;17.60;54.30;;;;;;5131325;27;20638;-63
2024/03/08 11:33:41;;;;;;;7.43;6.65;;;17.50;54.30;;;;;;5113306;27;20192;-63
2024/03/08 11:36:25;;;;;;;6.70;6.18;;;17.60;54.40;;;;;;5113608;28;20554;-63
2024/03/08 11:38:55;;;;;;;7.45;6.70;;;17.60;54.40;;;;;;5114253;28;20236;-63
2024/03/08 11:41:24;;;;;;;7.30;6.55;;;17.60;54.40;;;;;;5113820;28;20219;-63
2024/03/08 11:44:01;;;;;;;7.07;6.38;;;17.60;54.50;;;;;;5113542;28;20173;-63
2024/03/08 11:46:28;;;;;;;6.55;5.95;;;17.60;54.40;;;;;;5113908;28;20676;-63
2024/03/08 11:48:54;;;;;;;7.28;6.60;;;17.60;54.40;;;;;;5114279;28;20169;-62
2024/03/08 11:51:20;;;;;;;7.43;6.82;;;17.60;54.40;;;;;;5111940;28;20643;-62
2024/03/08 11:53:45;;;;;;;6.80;6.20;;;17.60;54.40;;;;;;5112813;28;20185;-63
2024/03/08 11:56:12;;;;;;;6.80;6.20;;;17.70;54.30;;;;;;5113654;28;20201;-63
2024/03/08 11:58:37;;;;;;;7.32;6.63;;;17.70;54.30;;;;;;5113054;28;20236;-63
2024/03/08 12:01:07;;;;;;;7.32;6.63;;;17.70;54.10;;;;;;5113923;28;20501;-62
2024/03/08 12:03:33;;;;;;;7.03;6.32;;;17.70;53.80;;;;;;5113235;28;20241;-63
2024/03/08 12:05:59;;;;;;;7.20;6.50;;;17.70;53.90;;;;;;5113961;28;20181;-62
2024/03/08 12:08:28;;;;;;;7.10;6.50;;;17.70;53.70;;;;;;5113439;28;20579;-63
2024/03/08 12:10:59;;;;;;;7.22;6.63;;;17.70;53.70;;;;;;5112926;28;20643;-62
2024/03/08 12:13:31;;;;;;;6.40;5.80;;;17.70;53.70;;;;;;5113542;28;20575;-63
2024/03/08 12:15:59;;;;;;;7.40;6.70;;;17.70;53.60;;;;;;5113765;28;20260;-63
2024/03/08 12:18:29;;;;;;;7.30;6.60;;;17.70;53.60;;;;;;5112534;28;20288;-63
2024/03/08 12:21:20;;;;;;;7.85;7.05;;;17.70;53.70;;;;;;5113590;28;20535;-62
2024/03/08 12:23:46;;;;;;;6.85;6.18;;;17.70;53.60;;;;;;5113767;27;20226;-63
2024/03/08 12:26:14;;;;;;;9.45;6.88;;;17.70;53.80;;;;;;5112602;28;20173;-63
2024/03/08 12:28:40;;;;;;;6.80;6.20;;;17.70;53.50;;;;;;5113475;28;20264;-63
2024/03/08 12:31:10;;;;;;;7.40;6.70;;;17.70;53.70;;;;;;5113100;28;20230;-62
2024/03/08 12:33:48;;;;;;;7.05;6.45;;;17.70;53.80;;;;;;5112705;28;20944;-63
2024/03/08 12:36:15;;;;;;;6.85;6.25;;;17.70;53.90;;;;;;5113187;28;20181;-63
2024/03/08 12:38:43;;;;;;;7.00;6.30;;;17.70;53.90;;;;;;5112640;28;20223;-63
2024/03/08 12:41:08;;;;;;;7.93;7.13;;;17.70;53.80;;;;;;5111855;28;20173;-63
2024/03/08 12:43:34;;;;;;;7.82;7.13;;;17.70;53.50;;;;;;5113195;28;20238;-63
2024/03/08 12:45:59;;;;;;;6.75;6.05;;;17.70;54.20;;;;;;5112304;28;20708;-62